Solitude, Utah
Current Conditions -  °F | °C
As of 7:53 PM on Sunday 21 Dec 2014 (Local Time) from KSLC Reporting Station
Overcast Overcast  
Wind Chill: 40°   Ceiling: 4700
Heat Index: 46°   Visibility: 10mi
Dew Point: 41°   Wind: 13mph
Humidity: 83%   Direction: 340°NNW
Pressure: 29.98"   Gusts: NA
Location:  40.6239°N, 111.817°W
Report Text: KSLC 220253Z 34011KT 10SM OVC047 08/05 A2998 RMK AO2 SLP145 60000 T00780050 53017
Loading
Personal Weather Stations






























Interactive Weather Map New forecast layout! Learn more

10-Day Weather Forecast

Advertisements
Track Severe Weather on mobile